Platzwetter / Webcam

  • Aktuelles Bild
  • Verlauf
  • Verlauf
  • Verlauf
  • Verlauf
  • Verlauf
  • Verlauf
  • Verlauf
  • Verlauf
  • Verlauf
  • Verlauf
  • Verlauf
  • Verlauf
  • Verlauf
  • Verlauf
  • Verlauf
  • Verlauf
  • Verlauf

Flugwetter Linz

[Quelle: ADDS]
METAR
LOWL 230750Z 29012KT 9999 SCT024 BKN060 06/01 Q1022 NOSIG =
TAF
LOWL 230515Z 2306/2406 27010KT 9999 FEW040 BKN080 TX10/2312Z TN00/2404Z TEMPO 2308/2317 30015G25KT SCT050 SCT250 PROB30 TEMPO 2310/2314 30018G30KT -SHRA BKN050 BECMG 2318/2320 27004KT FEW050 SCT250 =

Flugwetter Salzburg

[Quelle: ADDS]
METAR
LOWS 230750Z 13005KT 9999 FEW003 SCT019 BKN070 04/02 Q1023 NOSIG =
TAF
AMD LOWS 230620Z 2306/2406 30008KT 9999 SCT025 BKN040 TX09/2315Z TN00/2406Z TEMPO 2306/2312 -RA SCT012 BKN020 PROB40 TEMPO 2306/2308 4000 RASN TEMPO 2310/2315 31010G20KT BECMG 2312/2314 FEW040 SCT080 BECMG 2319/2321 15004KT CAVOK =

Fliegen lernen

Die Fliegerschule der WMW...

Termine & Events

Alle Termine anzeigen...

Mietwagen

am Flugplatz Wels 
Toyota Aygo 1.0 VVTi 5tg.

1/2 Tag      25,- Euro
1 Tag   50,- Euro
Wochenende   100,- Euro

Weitere Infos...

+++ Aktuelle Spritpreise (07.03.2017): | Jet A-1 € 1,340 | Super Plus 98 ETBE € 1,370 | Avgas 100LL € 1,992 | +++